createdAt,value
2023-01-07T00:01:28.382Z,100752.59
2023-01-07T00:03:56.057Z,100753.66
2023-01-07T00:06:28.294Z,100759.59
2023-01-07T00:08:56.342Z,100758.03
2023-01-07T00:11:25.397Z,100750.91
2023-01-07T00:13:53.325Z,100754.19
2023-01-07T00:16:22.079Z,100751.38
2023-01-07T00:18:50.098Z,100752.25
2023-01-07T00:21:17.865Z,100754.72
2023-01-07T00:23:45.946Z,100758.00
2023-01-07T00:26:16.390Z,100752.31
2023-01-07T00:28:44.956Z,100741.75
2023-01-07T00:31:16.486Z,100747.09
2023-01-07T00:33:43.620Z,100740.41
2023-01-07T00:36:10.310Z,100738.41
2023-01-07T00:38:37.220Z,100735.75
2023-01-07T00:41:04.251Z,100737.03
2023-01-07T00:43:30.847Z,100739.44
2023-01-07T00:45:57.226Z,100735.09
2023-01-07T00:48:23.571Z,100732.13
2023-01-07T00:50:51.728Z,100721.84
2023-01-07T00:53:18.412Z,100721.91
2023-01-07T00:55:45.331Z,100715.69
2023-01-07T00:58:15.719Z,100710.81
2023-01-07T01:00:42.086Z,100719.41
2023-01-07T01:03:11.110Z,100719.91
2023-01-07T01:05:37.623Z,100714.56
2023-01-07T01:08:04.078Z,100720.88
2023-01-07T01:10:30.550Z,100720.94
2023-01-07T01:12:56.891Z,100728.03
2023-01-07T01:15:23.456Z,100716.41
2023-01-07T01:17:51.891Z,100715.13
2023-01-07T01:20:18.953Z,100717.06
2023-01-07T01:22:45.624Z,100709.16
2023-01-07T01:25:12.631Z,100704.28
2023-01-07T01:27:39.067Z,100702.66
2023-01-07T01:30:07.000Z,100699.94
2023-01-07T01:32:33.369Z,100703.19
2023-01-07T01:34:59.701Z,100707.50
2023-01-07T01:37:26.017Z,100704.03
2023-01-07T01:39:52.303Z,100706.75
2023-01-07T01:42:23.403Z,100710.81
2023-01-07T01:44:55.535Z,100716.81
2023-01-07T01:47:40.720Z,100714.66
2023-01-07T01:50:17.785Z,100716.50
2023-01-07T01:52:55.970Z,100713.41
2023-01-07T01:55:30.616Z,100711.81
2023-01-07T01:58:00.618Z,100700.00
2023-01-07T02:00:27.528Z,100707.28
2023-01-07T02:02:56.847Z,100709.78
2023-01-07T02:05:31.482Z,100707.59
2023-01-07T02:07:57.792Z,100710.28
2023-01-07T02:10:24.566Z,100708.56
2023-01-07T02:13:03.030Z,100716.69
2023-01-07T02:15:58.801Z,100712.97
2023-01-07T02:18:42.867Z,100704.56
2023-01-07T02:21:09.133Z,100716.19
2023-01-07T02:23:54.218Z,100714.31
2023-01-07T02:26:52.880Z,100711.41
2023-01-07T02:29:19.140Z,100709.53
2023-01-07T02:31:57.308Z,100711.06
2023-01-07T02:34:45.948Z,100707.03
2023-01-07T02:37:33.304Z,100701.69
2023-01-07T02:40:25.824Z,100691.41
2023-01-07T02:43:02.554Z,100691.44
2023-01-07T02:45:50.192Z,100686.56
2023-01-07T02:48:19.553Z,100684.97
2023-01-07T02:50:45.955Z,100682.00
2023-01-07T02:53:17.297Z,100681.72
2023-01-07T02:56:13.442Z,100667.41
2023-01-07T02:59:04.012Z,100662.78
2023-01-07T03:01:41.911Z,100660.09
2023-01-07T03:04:17.525Z,100653.63
2023-01-07T03:06:55.851Z,100655.28
2023-01-07T03:09:43.863Z,100648.84
2023-01-07T03:12:42.444Z,100653.22
2023-01-07T03:15:18.158Z,100641.63
2023-01-07T03:17:51.913Z,100639.72
2023-01-07T03:20:22.060Z,100637.34
2023-01-07T03:22:49.526Z,100644.94
2023-01-07T03:25:17.508Z,100632.22
2023-01-07T03:27:46.839Z,100639.25
2023-01-07T03:30:15.394Z,100639.25
2023-01-07T03:32:49.033Z,100639.25
2023-01-07T03:35:16.200Z,100636.53
2023-01-07T03:37:42.989Z,100630.06
2023-01-07T03:40:11.195Z,100635.97
2023-01-07T03:42:40.402Z,100636.81
2023-01-07T03:45:10.518Z,100634.88
2023-01-07T03:47:40.065Z,100630.25
2023-01-07T03:50:06.711Z,100623.22
2023-01-07T03:52:33.004Z,100626.72
2023-01-07T03:54:59.582Z,100628.88
2023-01-07T03:57:25.927Z,100623.44
2023-01-07T03:59:52.260Z,100615.66
2023-01-07T04:02:18.576Z,100622.66
2023-01-07T04:04:44.938Z,100612.94
2023-01-07T04:07:11.261Z,100611.81
2023-01-07T04:09:37.573Z,100604.75
2023-01-07T04:12:03.942Z,100607.22
2023-01-07T04:14:30.258Z,100607.78
2023-01-07T04:16:56.679Z,100609.41
2023-01-07T04:19:23.231Z,100598.09
2023-01-07T04:21:49.547Z,100591.59
2023-01-07T04:24:15.852Z,100589.44
2023-01-07T04:26:42.244Z,100586.78
2023-01-07T04:29:08.602Z,100587.91
2023-01-07T04:31:35.592Z,100582.53
2023-01-07T04:34:01.894Z,100575.44
2023-01-07T04:36:28.954Z,100582.53
2023-01-07T04:38:55.309Z,100577.63
2023-01-07T04:41:21.639Z,100578.50
2023-01-07T04:43:47.957Z,100573.41
2023-01-07T04:46:14.348Z,100574.19
2023-01-07T04:48:40.650Z,100563.91
2023-01-07T04:51:06.999Z,100571.56
2023-01-07T04:53:33.360Z,100571.31
2023-01-07T04:55:59.684Z,100568.63
2023-01-07T04:58:25.979Z,100560.53
2023-01-07T05:00:52.374Z,100557.28
2023-01-07T05:03:18.695Z,100556.13
2023-01-07T05:05:45.656Z,100562.66
2023-01-07T05:08:12.031Z,100555.88
2023-01-07T05:10:38.324Z,100556.38
2023-01-07T05:13:06.637Z,100557.75
2023-01-07T05:15:33.911Z,100551.84
2023-01-07T05:18:00.278Z,100548.91
2023-01-07T05:20:26.599Z,100554.56
2023-01-07T05:22:52.929Z,100547.56
2023-01-07T05:25:19.263Z,100547.53
2023-01-07T05:27:45.565Z,100544.84
2023-01-07T05:30:12.023Z,100551.63
2023-01-07T05:32:38.314Z,100543.81
2023-01-07T05:35:05.031Z,100542.19
2023-01-07T05:37:31.365Z,100547.34
2023-01-07T05:39:57.664Z,100543.25
2023-01-07T05:42:23.986Z,100545.97
2023-01-07T05:44:50.466Z,100542.72
2023-01-07T05:47:16.792Z,100547.31
2023-01-07T05:49:43.119Z,100545.19
2023-01-07T05:52:09.501Z,100546.53
2023-01-07T05:54:36.550Z,100552.50
2023-01-07T05:57:02.867Z,100555.50
2023-01-07T05:59:29.205Z,100549.28
2023-01-07T06:01:55.489Z,100549.03
2023-01-07T06:04:21.824Z,100552.28
2023-01-07T06:06:48.134Z,100545.53
2023-01-07T06:09:14.571Z,100551.44
2023-01-07T06:11:40.903Z,100546.59
2023-01-07T06:14:07.215Z,100549.84
2023-01-07T06:16:33.513Z,100550.34
2023-01-07T06:18:59.820Z,100540.69
2023-01-07T06:21:26.116Z,100550.66
2023-01-07T06:23:52.538Z,100546.09
2023-01-07T06:26:19.220Z,100553.66
2023-01-07T06:28:45.539Z,100547.16
2023-01-07T06:31:11.888Z,100547.16
2023-01-07T06:33:38.519Z,100540.91
2023-01-07T06:36:05.180Z,100538.50
2023-01-07T06:38:31.492Z,100531.44
2023-01-07T06:40:57.847Z,100536.28
2023-01-07T06:43:24.964Z,100530.06
2023-01-07T06:45:51.421Z,100532.22
2023-01-07T06:48:17.778Z,100522.78
2023-01-07T06:50:44.645Z,100521.97
2023-01-07T06:53:11.024Z,100523.63
2023-01-07T06:55:37.433Z,100508.16
2023-01-07T06:58:03.757Z,100513.31
2023-01-07T07:00:30.135Z,100519.19
2023-01-07T07:02:56.538Z,100518.94
2023-01-07T07:05:22.897Z,100518.03
2023-01-07T07:07:49.203Z,100516.16
2023-01-07T07:10:15.551Z,100509.13
2023-01-07T07:12:41.875Z,100504.16
2023-01-07T07:15:09.053Z,100506.91
2023-01-07T07:17:35.372Z,100502.53
2023-01-07T07:20:01.728Z,100499.31
2023-01-07T07:22:28.055Z,100500.94
2023-01-07T07:24:54.349Z,100503.66
2023-01-07T07:27:20.618Z,100502.09
2023-01-07T07:29:46.919Z,100499.81
2023-01-07T07:32:13.217Z,100498.59
2023-01-07T07:34:39.496Z,100492.09
2023-01-07T07:37:05.805Z,100493.75
2023-01-07T07:39:32.140Z,100495.53
2023-01-07T07:41:58.450Z,100492.22
2023-01-07T07:44:24.733Z,100488.56
2023-01-07T07:46:51.116Z,100489.19
2023-01-07T07:49:17.458Z,100488.66
2023-01-07T07:51:43.754Z,100486.50
2023-01-07T07:54:10.088Z,100488.63
2023-01-07T07:56:36.386Z,100489.66
2023-01-07T07:59:03.013Z,100479.84
2023-01-07T08:01:29.403Z,100478.72
2023-01-07T08:03:55.827Z,100466.91
2023-01-07T08:06:22.129Z,100468.47
2023-01-07T08:08:48.428Z,100469.00
2023-01-07T08:11:14.818Z,100467.84
2023-01-07T08:13:41.237Z,100471.91
2023-01-07T08:16:07.672Z,100468.91
2023-01-07T08:18:34.157Z,100472.25
2023-01-07T08:21:00.475Z,100467.38
2023-01-07T08:23:26.803Z,100464.63
2023-01-07T08:25:53.401Z,100473.47
2023-01-07T08:28:19.717Z,100466.78
2023-01-07T08:30:46.013Z,100471.09
2023-01-07T08:33:12.335Z,100465.22
2023-01-07T08:35:38.639Z,100465.63
2023-01-07T08:38:07.577Z,100461.78
2023-01-07T08:40:34.370Z,100463.16
2023-01-07T08:43:02.401Z,100456.00
2023-01-07T08:45:29.330Z,100461.72
2023-01-07T08:47:55.793Z,100458.09
2023-01-07T08:50:22.084Z,100461.09
2023-01-07T08:52:48.387Z,100457.47
2023-01-07T08:55:14.781Z,100452.03
2023-01-07T08:57:41.092Z,100459.59
2023-01-07T09:00:08.382Z,100457.41
2023-01-07T09:02:34.801Z,100456.75
2023-01-07T09:05:01.111Z,100453.66
2023-01-07T09:07:27.461Z,100455.25
2023-01-07T09:09:53.761Z,100442.66
2023-01-07T09:12:20.197Z,100442.03
2023-01-07T09:14:46.481Z,100445.59
2023-01-07T09:17:12.796Z,100441.28
2023-01-07T09:19:39.108Z,100440.28
2023-01-07T09:22:05.406Z,100433.38
2023-01-07T09:24:31.719Z,100435.59
2023-01-07T09:26:58.011Z,100434.88
2023-01-07T09:29:24.340Z,100438.59
2023-01-07T09:31:50.716Z,100430.97
2023-01-07T09:34:17.033Z,100427.88
2023-01-07T09:36:43.368Z,100425.50
2023-01-07T09:39:13.113Z,100428.81
2023-01-07T09:41:55.903Z,100433.78
2023-01-07T09:44:34.277Z,100429.16
2023-01-07T09:47:02.318Z,100428.06
2023-01-07T09:49:30.855Z,100433.00
2023-01-07T09:52:07.852Z,100426.06
2023-01-07T09:54:36.618Z,100433.72
2023-01-07T09:57:04.101Z,100437.47
2023-01-07T09:59:30.989Z,100440.63
2023-01-07T10:02:33.299Z,100429.63
2023-01-07T10:05:22.648Z,100438.28
2023-01-07T10:08:29.753Z,100426.84
2023-01-07T10:11:05.728Z,100420.53
2023-01-07T10:14:04.384Z,100422.44
2023-01-07T10:16:45.069Z,100419.31
2023-01-07T10:19:53.276Z,100416.59
2023-01-07T10:22:45.569Z,100411.03
2023-01-07T10:25:28.544Z,100407.88
2023-01-07T10:28:02.845Z,100405.50
2023-01-07T10:30:32.073Z,100404.91
2023-01-07T10:33:11.272Z,100401.84
2023-01-07T10:35:40.039Z,100404.72
2023-01-07T10:38:14.435Z,100398.56
2023-01-07T10:40:47.107Z,100397.44
2023-01-07T10:43:42.740Z,100393.63
2023-01-07T10:46:11.021Z,100396.97
2023-01-07T10:49:03.975Z,100389.44
2023-01-07T10:51:58.358Z,100385.09
2023-01-07T10:54:43.298Z,100383.50
2023-01-07T10:57:15.591Z,100374.22
2023-01-07T10:59:48.807Z,100359.34
2023-01-07T11:02:18.764Z,100369.44
2023-01-07T11:04:45.371Z,100356.38
2023-01-07T11:07:33.221Z,100344.41
2023-01-07T11:10:04.530Z,100344.53
2023-01-07T11:12:44.799Z,100338.59
2023-01-07T11:15:20.576Z,100337.41
2023-01-07T11:17:55.343Z,100331.75
2023-01-07T11:20:44.692Z,100328.84
2023-01-07T11:23:34.660Z,100324.94
2023-01-07T11:26:24.751Z,100315.38
2023-01-07T11:29:24.255Z,100313.19
2023-01-07T11:31:57.699Z,100305.78
2023-01-07T11:34:37.882Z,100300.78
2023-01-07T11:37:05.181Z,100297.75
2023-01-07T11:39:34.811Z,100282.59
2023-01-07T11:42:18.950Z,100286.75
2023-01-07T11:44:45.278Z,100274.13
2023-01-07T11:47:16.022Z,100282.16
2023-01-07T11:49:45.223Z,100277.31
2023-01-07T11:52:19.954Z,100266.78
2023-01-07T11:54:52.322Z,100258.03
2023-01-07T11:57:23.928Z,100256.22
2023-01-07T12:00:14.324Z,100252.59
2023-01-07T12:02:40.896Z,100253.50
2023-01-07T12:05:25.454Z,100241.53
2023-01-07T12:07:52.549Z,100233.28
2023-01-07T12:10:24.781Z,100224.13
2023-01-07T12:12:51.757Z,100226.25
2023-01-07T12:15:30.071Z,100217.41
2023-01-07T12:18:11.808Z,100212.88
2023-01-07T12:20:47.253Z,100207.75
2023-01-07T12:23:49.600Z,100201.91
2023-01-07T12:26:22.875Z,100192.25
2023-01-07T12:29:24.511Z,100184.72
2023-01-07T12:32:13.125Z,100187.63
2023-01-07T12:34:55.708Z,100191.41
2023-01-07T12:37:28.943Z,100171.50
2023-01-07T12:40:18.458Z,100160.28
2023-01-07T12:42:54.943Z,100157.66
2023-01-07T12:45:28.962Z,100146.97
2023-01-07T12:48:01.650Z,100144.34
2023-01-07T12:50:35.799Z,100133.31
2023-01-07T12:53:12.484Z,100125.84
2023-01-07T12:55:47.512Z,100124.34
2023-01-07T12:58:21.058Z,100123.59
2023-01-07T13:01:04.449Z,100120.09
2023-01-07T13:03:50.135Z,100117.84
2023-01-07T13:06:35.277Z,100109.00
2023-01-07T13:09:19.481Z,100106.56
2023-01-07T13:11:52.336Z,100097.53
2023-01-07T13:14:24.840Z,100107.22
2023-01-07T13:16:51.397Z,100107.28
2023-01-07T13:19:17.793Z,100096.53
2023-01-07T13:21:48.864Z,100097.16
2023-01-07T13:24:55.742Z,100087.88
2023-01-07T13:27:43.835Z,100085.19
2023-01-07T13:30:26.986Z,100074.16
2023-01-07T13:33:02.313Z,100072.19
2023-01-07T13:35:42.221Z,100070.66
2023-01-07T13:38:32.330Z,100070.16
2023-01-07T13:41:13.094Z,100065.00
2023-01-07T13:44:03.055Z,100050.28
2023-01-07T13:46:36.722Z,100049.91
2023-01-07T13:49:03.356Z,100048.03
2023-01-07T13:51:39.001Z,100052.34
2023-01-07T13:54:05.391Z,100053.94
2023-01-07T13:56:37.487Z,100059.69
2023-01-07T13:59:04.828Z,100057.16
2023-01-07T14:01:32.525Z,100057.22
2023-01-07T14:04:18.819Z,100049.81
2023-01-07T14:06:48.592Z,100042.28
2023-01-07T14:09:21.339Z,100036.75
2023-01-07T14:12:35.989Z,100039.66
2023-01-07T14:15:18.521Z,100037.75
2023-01-07T14:18:09.839Z,100029.63
2023-01-07T14:20:44.425Z,100031.31
2023-01-07T14:23:31.086Z,100019.78
2023-01-07T14:26:36.436Z,100022.66
2023-01-07T14:29:27.007Z,100016.78
2023-01-07T14:32:31.883Z,100016.59
2023-01-07T14:35:26.557Z,100017.31
2023-01-07T14:37:52.855Z,100018.19
2023-01-07T14:40:28.258Z,100012.09
2023-01-07T14:42:56.042Z,100013.00
2023-01-07T14:45:40.803Z,100008.56
2023-01-07T14:48:10.127Z,100000.84
2023-01-07T14:50:43.082Z,99996.75
2023-01-07T14:53:40.500Z,99992.22
2023-01-07T14:56:41.971Z,99984.50
2023-01-07T14:59:22.904Z,99989.53
2023-01-07T15:02:00.765Z,99988.16
2023-01-07T15:04:45.889Z,99983.31
2023-01-07T15:07:23.459Z,99981.09
2023-01-07T15:09:57.833Z,99972.56
2023-01-07T15:12:29.738Z,99975.28
2023-01-07T15:15:14.194Z,99972.88
2023-01-07T15:17:40.885Z,99965.75
2023-01-07T15:20:07.781Z,99971.06
2023-01-07T15:23:00.400Z,99970.06
2023-01-07T15:25:32.982Z,99970.16
2023-01-07T15:28:05.262Z,99972.66
2023-01-07T15:30:40.366Z,99969.03
2023-01-07T15:33:34.555Z,99968.94
2023-01-07T15:36:03.923Z,99960.31
2023-01-07T15:38:45.612Z,99956.81
2023-01-07T15:41:28.489Z,99954.69
2023-01-07T15:43:55.824Z,99952.59
2023-01-07T15:46:24.050Z,99950.47
2023-01-07T15:49:08.343Z,99946.19
2023-01-07T15:51:43.520Z,99931.53
2023-01-07T15:54:37.552Z,99931.69
2023-01-07T15:57:16.876Z,99930.19
2023-01-07T15:59:46.511Z,99931.06
2023-01-07T16:02:24.862Z,99927.97
2023-01-07T16:04:57.224Z,99929.63
2023-01-07T16:07:28.281Z,99928.63
2023-01-07T16:09:56.316Z,99914.22
2023-01-07T16:12:35.982Z,99923.25
2023-01-07T16:15:20.714Z,99905.63
2023-01-07T16:17:55.254Z,99918.56
2023-01-07T16:20:25.046Z,99926.09
2023-01-07T16:23:00.343Z,99923.69
2023-01-07T16:25:35.113Z,99919.66
2023-01-07T16:28:02.504Z,99907.63
2023-01-07T16:30:28.874Z,99904.00
2023-01-07T16:32:55.580Z,99897.19
2023-01-07T16:35:30.509Z,99892.75
2023-01-07T16:37:56.855Z,99888.53
2023-01-07T16:40:37.829Z,99884.53
2023-01-07T16:43:05.091Z,99892.59
2023-01-07T16:45:33.689Z,99879.28
2023-01-07T16:48:20.382Z,99876.28
2023-01-07T16:50:48.538Z,99880.19
2023-01-07T16:53:35.123Z,99878.22
2023-01-07T16:56:14.890Z,99869.09
2023-01-07T16:58:46.924Z,99865.06
2023-01-07T17:01:17.943Z,99866.53
2023-01-07T17:03:52.512Z,99865.66
2023-01-07T17:06:36.787Z,99880.63
2023-01-07T17:09:03.669Z,99869.03
2023-01-07T17:11:37.692Z,99869.75
2023-01-07T17:14:04.691Z,99865.59
2023-01-07T17:16:33.472Z,99871.09
2023-01-07T17:19:26.737Z,99859.47
2023-01-07T17:21:53.910Z,99861.34
2023-01-07T17:24:29.033Z,99857.63
2023-01-07T17:26:59.277Z,99863.56
2023-01-07T17:29:37.306Z,99856.31
2023-01-07T17:32:03.953Z,99853.25
2023-01-07T17:34:30.281Z,99852.00
2023-01-07T17:36:56.569Z,99843.69
2023-01-07T17:39:22.862Z,99839.25
2023-01-07T17:41:49.213Z,99832.94
2023-01-07T17:44:15.504Z,99837.63
2023-01-07T17:46:42.045Z,99835.84
2023-01-07T17:49:10.811Z,99828.19
2023-01-07T17:51:43.239Z,99827.09
2023-01-07T17:54:18.524Z,99830.09
2023-01-07T17:56:44.849Z,99836.72
2023-01-07T17:59:19.852Z,99839.94
2023-01-07T18:01:46.740Z,99839.25
2023-01-07T18:04:13.188Z,99841.66
2023-01-07T18:06:42.416Z,99837.78
2023-01-07T18:09:08.793Z,99836.59
2023-01-07T18:11:39.715Z,99839.81
2023-01-07T18:14:06.681Z,99829.16
2023-01-07T18:16:33.535Z,99829.84
2023-01-07T18:18:59.943Z,99819.72
2023-01-07T18:21:26.270Z,99825.78
2023-01-07T18:23:52.746Z,99823.44
2023-01-07T18:26:19.400Z,99828.56
2023-01-07T18:28:47.353Z,99832.56
2023-01-07T18:31:14.348Z,99833.75
2023-01-07T18:33:41.246Z,99826.31
2023-01-07T18:36:07.751Z,99829.28
2023-01-07T18:38:34.083Z,99816.06
2023-01-07T18:41:00.389Z,99817.47
2023-01-07T18:43:26.966Z,99809.66
2023-01-07T18:45:53.414Z,99807.91
2023-01-07T18:48:20.238Z,99811.78
2023-01-07T18:50:49.017Z,99808.00
2023-01-07T18:53:17.407Z,99810.75
2023-01-07T18:55:45.062Z,99816.88
2023-01-07T18:58:13.922Z,99802.44
2023-01-07T19:00:40.722Z,99809.09
2023-01-07T19:03:07.161Z,99808.03
2023-01-07T19:05:33.476Z,99805.19
2023-01-07T19:07:59.787Z,99801.25
2023-01-07T19:10:26.380Z,99792.28
2023-01-07T19:12:52.711Z,99789.84
2023-01-07T19:15:19.074Z,99793.81
2023-01-07T19:17:45.414Z,99786.06
2023-01-07T19:20:15.153Z,99791.97
2023-01-07T19:22:41.468Z,99781.41
2023-01-07T19:25:08.103Z,99772.47
2023-01-07T19:27:34.420Z,99763.22
2023-01-07T19:30:00.730Z,99754.06
2023-01-07T19:32:29.498Z,99754.91
2023-01-07T19:34:55.775Z,99747.91
2023-01-07T19:37:22.136Z,99746.88
2023-01-07T19:39:48.603Z,99735.47
2023-01-07T19:42:14.892Z,99734.38
2023-01-07T19:44:41.197Z,99738.59
2023-01-07T19:47:07.592Z,99719.69
2023-01-07T19:49:33.930Z,99727.78
2023-01-07T19:52:00.244Z,99722.38
2023-01-07T19:54:26.552Z,99711.16
2023-01-07T19:56:53.512Z,99698.03
2023-01-07T19:59:19.820Z,99695.59
2023-01-07T20:01:46.252Z,99693.03
2023-01-07T20:04:15.663Z,99681.31
2023-01-07T20:06:41.962Z,99679.41
2023-01-07T20:09:08.869Z,99685.63
2023-01-07T20:11:35.172Z,99676.00
2023-01-07T20:14:01.491Z,99671.63
2023-01-07T20:16:27.842Z,99670.81
2023-01-07T20:18:55.322Z,99665.53
2023-01-07T20:21:30.450Z,99662.41
2023-01-07T20:23:57.207Z,99664.94
2023-01-07T20:26:26.492Z,99664.50
2023-01-07T20:28:52.862Z,99663.13
2023-01-07T20:31:21.137Z,99662.22
2023-01-07T20:33:48.016Z,99671.25
2023-01-07T20:36:16.408Z,99680.44
2023-01-07T20:38:44.523Z,99691.97
2023-01-07T20:41:17.120Z,99700.00
2023-01-07T20:43:43.813Z,99682.88
2023-01-07T20:46:10.761Z,99683.75
2023-01-07T20:48:37.253Z,99683.44
2023-01-07T20:51:07.573Z,99678.63
2023-01-07T20:53:34.561Z,99681.25
2023-01-07T20:56:01.980Z,99669.41
2023-01-07T20:58:30.852Z,99663.94
2023-01-07T21:00:57.353Z,99669.84
2023-01-07T21:03:23.738Z,99678.84
2023-01-07T21:05:58.053Z,99677.88
2023-01-07T21:08:25.406Z,99667.03
2023-01-07T21:10:52.409Z,99666.34
2023-01-07T21:13:19.709Z,99667.03
2023-01-07T21:15:46.166Z,99664.81
2023-01-07T21:18:15.350Z,99658.59
2023-01-07T21:20:41.945Z,99654.00
2023-01-07T21:23:11.412Z,99662.44
2023-01-07T21:25:38.261Z,99655.19
2023-01-07T21:28:04.898Z,99652.19
2023-01-07T21:30:31.259Z,99637.66
2023-01-07T21:32:58.482Z,99645.78
2023-01-07T21:35:24.950Z,99642.38
2023-01-07T21:37:55.362Z,99645.19
2023-01-07T21:40:22.655Z,99648.38
2023-01-07T21:42:49.369Z,99641.19
2023-01-07T21:45:15.904Z,99634.38
2023-01-07T21:47:42.257Z,99637.97
2023-01-07T21:50:09.069Z,99630.38
2023-01-07T21:52:35.890Z,99621.13
2023-01-07T21:55:02.269Z,99623.41
2023-01-07T21:57:28.576Z,99619.13
2023-01-07T21:59:55.036Z,99619.31
2023-01-07T22:02:21.381Z,99613.47
2023-01-07T22:04:47.721Z,99619.16
2023-01-07T22:07:16.484Z,99619.38
2023-01-07T22:09:45.862Z,99627.81
2023-01-07T22:12:13.009Z,99625.72
2023-01-07T22:14:39.347Z,99624.53
2023-01-07T22:17:07.047Z,99617.22
2023-01-07T22:19:33.791Z,99619.72
2023-01-07T22:22:00.097Z,99627.22
2023-01-07T22:24:26.382Z,99621.19
2023-01-07T22:26:52.837Z,99618.84
2023-01-07T22:29:19.161Z,99612.81
2023-01-07T22:31:45.523Z,99624.50
2023-01-07T22:34:13.381Z,99611.41
2023-01-07T22:37:04.111Z,99609.50
2023-01-07T22:39:35.651Z,99617.75
2023-01-07T22:42:36.924Z,99628.94
2023-01-07T22:45:10.830Z,99634.44
2023-01-07T22:47:42.003Z,99631.47
2023-01-07T22:50:09.403Z,99624.00
2023-01-07T22:52:36.987Z,99626.56
2023-01-07T22:55:03.814Z,99615.13
2023-01-07T22:57:30.316Z,99615.28
2023-01-07T22:59:56.621Z,99606.31
2023-01-07T23:02:23.051Z,99607.31
2023-01-07T23:04:49.345Z,99609.53
2023-01-07T23:07:15.672Z,99604.09
2023-01-07T23:09:45.974Z,99597.47
2023-01-07T23:12:12.804Z,99601.09
2023-01-07T23:14:39.120Z,99602.28
2023-01-07T23:17:05.426Z,99603.31
2023-01-07T23:19:32.325Z,99596.78
2023-01-07T23:21:59.000Z,99594.16
2023-01-07T23:24:25.306Z,99598.28
2023-01-07T23:26:53.073Z,99592.56
2023-01-07T23:29:20.184Z,99586.13
2023-01-07T23:31:46.568Z,99582.56
2023-01-07T23:34:13.583Z,99575.31
2023-01-07T23:36:39.881Z,99573.06
2023-01-07T23:39:06.442Z,99571.47
2023-01-07T23:41:33.293Z,99566.06
2023-01-07T23:43:59.579Z,99560.53
2023-01-07T23:46:25.916Z,99568.72
2023-01-07T23:48:52.202Z,99576.72
2023-01-07T23:51:20.867Z,99582.44
2023-01-07T23:53:47.651Z,99584.28
2023-01-07T23:56:14.397Z,99573.19
2023-01-07T23:58:40.771Z,99562.72
